sensor_id;sensor_type;location;lat;lon;timestamp;P1;durP1;ratioP1;P2;durP2;ratioP2
7173;SDS011;3628;48.654;8.932;2023-05-07T00:01:49;1.87;;;1.13;;
7173;SDS011;3628;48.654;8.932;2023-05-07T00:04:15;2.80;;;1.20;;
7173;SDS011;3628;48.654;8.932;2023-05-07T00:06:40;2.33;;;1.20;;
7173;SDS011;3628;48.654;8.932;2023-05-07T00:09:06;1.27;;;1.10;;
7173;SDS011;3628;48.654;8.932;2023-05-07T00:11:32;3.27;;;1.20;;
7173;SDS011;3628;48.654;8.932;2023-05-07T00:13:58;1.27;;;1.17;;
7173;SDS011;3628;48.654;8.932;2023-05-07T00:16:23;1.67;;;0.97;;
7173;SDS011;3628;48.654;8.932;2023-05-07T00:18:49;3.07;;;1.23;;
7173;SDS011;3628;48.654;8.932;2023-05-07T00:21:15;1.63;;;1.17;;
7173;SDS011;3628;48.654;8.932;2023-05-07T00:23:41;1.80;;;1.40;;
7173;SDS011;3628;48.654;8.932;2023-05-07T00:26:06;1.30;;;1.20;;
7173;SDS011;3628;48.654;8.932;2023-05-07T00:28:32;3.03;;;1.47;;
7173;SDS011;3628;48.654;8.932;2023-05-07T00:30:57;3.83;;;1.50;;
7173;SDS011;3628;48.654;8.932;2023-05-07T00:33:23;2.87;;;1.30;;
7173;SDS011;3628;48.654;8.932;2023-05-07T00:35:48;1.23;;;1.13;;
7173;SDS011;3628;48.654;8.932;2023-05-07T00:38:14;1.30;;;1.20;;
7173;SDS011;3628;48.654;8.932;2023-05-07T00:40:40;1.20;;;1.10;;
7173;SDS011;3628;48.654;8.932;2023-05-07T00:43:05;2.57;;;1.17;;
7173;SDS011;3628;48.654;8.932;2023-05-07T00:45:33;3.17;;;1.20;;
7173;SDS011;3628;48.654;8.932;2023-05-07T00:47:59;1.00;;;1.00;;
7173;SDS011;3628;48.654;8.932;2023-05-07T00:50:28;1.50;;;1.27;;
7173;SDS011;3628;48.654;8.932;2023-05-07T00:52:55;1.63;;;1.20;;
7173;SDS011;3628;48.654;8.932;2023-05-07T00:55:21;3.00;;;1.27;;
7173;SDS011;3628;48.654;8.932;2023-05-07T00:57:47;1.30;;;1.20;;
7173;SDS011;3628;48.654;8.932;2023-05-07T01:00:14;4.27;;;1.40;;
7173;SDS011;3628;48.654;8.932;2023-05-07T01:02:40;1.53;;;1.17;;
7173;SDS011;3628;48.654;8.932;2023-05-07T01:05:07;1.17;;;1.07;;
7173;SDS011;3628;48.654;8.932;2023-05-07T01:07:34;1.30;;;1.20;;
7173;SDS011;3628;48.654;8.932;2023-05-07T01:10:02;2.30;;;1.40;;
7173;SDS011;3628;48.654;8.932;2023-05-07T01:12:28;1.13;;;1.10;;
7173;SDS011;3628;48.654;8.932;2023-05-07T01:14:55;1.67;;;1.00;;
7173;SDS011;3628;48.654;8.932;2023-05-07T01:17:21;1.27;;;0.90;;
7173;SDS011;3628;48.654;8.932;2023-05-07T01:19:47;1.73;;;1.37;;
7173;SDS011;3628;48.654;8.932;2023-05-07T01:22:13;2.10;;;1.10;;
7173;SDS011;3628;48.654;8.932;2023-05-07T01:24:41;1.40;;;1.30;;
7173;SDS011;3628;48.654;8.932;2023-05-07T01:27:07;1.50;;;1.40;;
7173;SDS011;3628;48.654;8.932;2023-05-07T01:29:33;1.63;;;1.13;;
7173;SDS011;3628;48.654;8.932;2023-05-07T01:31:59;1.20;;;1.10;;
7173;SDS011;3628;48.654;8.932;2023-05-07T01:34:26;1.60;;;1.13;;
7173;SDS011;3628;48.654;8.932;2023-05-07T01:36:55;1.20;;;1.10;;
7173;SDS011;3628;48.654;8.932;2023-05-07T01:39:26;1.40;;;1.30;;
7173;SDS011;3628;48.654;8.932;2023-05-07T01:41:54;1.20;;;1.00;;
7173;SDS011;3628;48.654;8.932;2023-05-07T01:44:21;1.30;;;1.20;;
7173;SDS011;3628;48.654;8.932;2023-05-07T01:46:47;1.77;;;1.20;;
7173;SDS011;3628;48.654;8.932;2023-05-07T01:49:13;1.80;;;1.40;;
7173;SDS011;3628;48.654;8.932;2023-05-07T01:51:40;1.70;;;1.20;;
7173;SDS011;3628;48.654;8.932;2023-05-07T01:54:06;2.07;;;1.20;;
7173;SDS011;3628;48.654;8.932;2023-05-07T01:56:33;2.33;;;1.30;;
7173;SDS011;3628;48.654;8.932;2023-05-07T01:58:58;2.60;;;1.27;;
7173;SDS011;3628;48.654;8.932;2023-05-07T02:01:24;1.87;;;1.30;;
7173;SDS011;3628;48.654;8.932;2023-05-07T02:03:50;1.43;;;1.30;;
7173;SDS011;3628;48.654;8.932;2023-05-07T02:06:15;1.97;;;1.40;;
7173;SDS011;3628;48.654;8.932;2023-05-07T02:08:41;3.33;;;1.27;;
7173;SDS011;3628;48.654;8.932;2023-05-07T02:11:06;1.20;;;1.10;;
7173;SDS011;3628;48.654;8.932;2023-05-07T02:13:33;2.23;;;1.30;;
7173;SDS011;3628;48.654;8.932;2023-05-07T02:16:02;1.87;;;1.33;;
7173;SDS011;3628;48.654;8.932;2023-05-07T02:18:27;1.97;;;1.50;;
7173;SDS011;3628;48.654;8.932;2023-05-07T02:20:53;2.13;;;1.40;;
7173;SDS011;3628;48.654;8.932;2023-05-07T02:23:19;4.40;;;1.10;;
7173;SDS011;3628;48.654;8.932;2023-05-07T02:25:44;1.30;;;1.20;;
7173;SDS011;3628;48.654;8.932;2023-05-07T02:28:10;2.53;;;1.00;;
7173;SDS011;3628;48.654;8.932;2023-05-07T02:30:36;2.23;;;1.20;;
7173;SDS011;3628;48.654;8.932;2023-05-07T02:33:04;2.50;;;1.50;;
7173;SDS011;3628;48.654;8.932;2023-05-07T02:35:29;1.13;;;1.03;;
7173;SDS011;3628;48.654;8.932;2023-05-07T02:37:55;1.30;;;1.20;;
7173;SDS011;3628;48.654;8.932;2023-05-07T02:40:20;1.57;;;1.40;;
7173;SDS011;3628;48.654;8.932;2023-05-07T02:42:46;3.30;;;1.20;;
7173;SDS011;3628;48.654;8.932;2023-05-07T02:45:12;1.57;;;1.23;;
7173;SDS011;3628;48.654;8.932;2023-05-07T02:47:37;1.43;;;1.30;;
7173;SDS011;3628;48.654;8.932;2023-05-07T02:50:03;2.10;;;1.33;;
7173;SDS011;3628;48.654;8.932;2023-05-07T02:52:29;1.47;;;1.37;;
7173;SDS011;3628;48.654;8.932;2023-05-07T02:54:54;2.70;;;1.13;;
7173;SDS011;3628;48.654;8.932;2023-05-07T02:57:20;1.20;;;1.10;;
7173;SDS011;3628;48.654;8.932;2023-05-07T02:59:45;1.10;;;1.10;;
7173;SDS011;3628;48.654;8.932;2023-05-07T03:02:11;3.73;;;1.53;;
7173;SDS011;3628;48.654;8.932;2023-05-07T03:04:37;3.77;;;1.30;;
7173;SDS011;3628;48.654;8.932;2023-05-07T03:07:04;2.93;;;1.30;;
7173;SDS011;3628;48.654;8.932;2023-05-07T03:09:29;1.47;;;1.37;;
7173;SDS011;3628;48.654;8.932;2023-05-07T03:11:56;1.77;;;1.40;;
7173;SDS011;3628;48.654;8.932;2023-05-07T03:14:21;1.27;;;1.10;;
7173;SDS011;3628;48.654;8.932;2023-05-07T03:16:47;2.10;;;1.10;;
7173;SDS011;3628;48.654;8.932;2023-05-07T03:19:13;1.20;;;1.00;;
7173;SDS011;3628;48.654;8.932;2023-05-07T03:21:39;1.77;;;1.23;;
7173;SDS011;3628;48.654;8.932;2023-05-07T03:24:05;1.37;;;1.27;;
7173;SDS011;3628;48.654;8.932;2023-05-07T03:26:30;3.47;;;1.53;;
7173;SDS011;3628;48.654;8.932;2023-05-07T03:28:56;1.43;;;1.27;;
7173;SDS011;3628;48.654;8.932;2023-05-07T03:31:21;3.17;;;1.30;;
7173;SDS011;3628;48.654;8.932;2023-05-07T03:33:54;1.53;;;1.00;;
7173;SDS011;3628;48.654;8.932;2023-05-07T03:36:21;1.07;;;1.03;;
7173;SDS011;3628;48.654;8.932;2023-05-07T03:38:47;3.30;;;1.20;;
7173;SDS011;3628;48.654;8.932;2023-05-07T03:41:13;2.00;;;1.27;;
7173;SDS011;3628;48.654;8.932;2023-05-07T03:43:39;1.50;;;1.23;;
7173;SDS011;3628;48.654;8.932;2023-05-07T03:46:05;1.30;;;1.10;;
7173;SDS011;3628;48.654;8.932;2023-05-07T03:48:30;1.30;;;1.20;;
7173;SDS011;3628;48.654;8.932;2023-05-07T03:50:57;2.67;;;1.47;;
7173;SDS011;3628;48.654;8.932;2023-05-07T03:53:23;1.40;;;1.03;;
7173;SDS011;3628;48.654;8.932;2023-05-07T03:55:48;1.13;;;1.07;;
7173;SDS011;3628;48.654;8.932;2023-05-07T03:58:14;2.03;;;1.27;;
7173;SDS011;3628;48.654;8.932;2023-05-07T04:00:40;2.10;;;1.00;;
7173;SDS011;3628;48.654;8.932;2023-05-07T04:03:06;3.83;;;1.70;;
7173;SDS011;3628;48.654;8.932;2023-05-07T04:05:32;1.97;;;1.60;;
7173;SDS011;3628;48.654;8.932;2023-05-07T04:07:58;1.83;;;1.23;;
7173;SDS011;3628;48.654;8.932;2023-05-07T04:10:24;1.37;;;1.20;;
7173;SDS011;3628;48.654;8.932;2023-05-07T04:12:49;1.47;;;1.33;;
7173;SDS011;3628;48.654;8.932;2023-05-07T04:15:15;1.67;;;1.40;;
7173;SDS011;3628;48.654;8.932;2023-05-07T04:17:41;3.90;;;1.40;;
7173;SDS011;3628;48.654;8.932;2023-05-07T04:20:08;1.40;;;1.30;;
7173;SDS011;3628;48.654;8.932;2023-05-07T04:22:35;2.40;;;1.43;;
7173;SDS011;3628;48.654;8.932;2023-05-07T04:25:01;2.50;;;1.50;;
7173;SDS011;3628;48.654;8.932;2023-05-07T04:27:27;1.83;;;1.40;;
7173;SDS011;3628;48.654;8.932;2023-05-07T04:29:53;1.40;;;1.30;;
7173;SDS011;3628;48.654;8.932;2023-05-07T04:32:20;2.87;;;1.67;;
7173;SDS011;3628;48.654;8.932;2023-05-07T04:34:46;5.67;;;1.30;;
7173;SDS011;3628;48.654;8.932;2023-05-07T04:37:12;2.53;;;1.37;;
7173;SDS011;3628;48.654;8.932;2023-05-07T04:39:37;2.67;;;1.40;;
7173;SDS011;3628;48.654;8.932;2023-05-07T04:42:03;1.60;;;1.50;;
7173;SDS011;3628;48.654;8.932;2023-05-07T04:44:28;3.93;;;1.63;;
7173;SDS011;3628;48.654;8.932;2023-05-07T04:46:56;1.67;;;1.30;;
7173;SDS011;3628;48.654;8.932;2023-05-07T04:49:21;1.50;;;1.40;;
7173;SDS011;3628;48.654;8.932;2023-05-07T04:51:47;1.50;;;1.40;;
7173;SDS011;3628;48.654;8.932;2023-05-07T04:54:13;1.97;;;1.63;;
7173;SDS011;3628;48.654;8.932;2023-05-07T04:56:38;1.27;;;1.17;;
7173;SDS011;3628;48.654;8.932;2023-05-07T04:59:04;1.87;;;1.40;;
7173;SDS011;3628;48.654;8.932;2023-05-07T05:01:30;2.37;;;1.50;;
7173;SDS011;3628;48.654;8.932;2023-05-07T05:03:56;1.47;;;1.37;;
7173;SDS011;3628;48.654;8.932;2023-05-07T05:06:21;2.30;;;1.57;;
7173;SDS011;3628;48.654;8.932;2023-05-07T05:08:47;1.80;;;1.70;;
7173;SDS011;3628;48.654;8.932;2023-05-07T05:11:12;1.47;;;1.23;;
7173;SDS011;3628;48.654;8.932;2023-05-07T05:13:38;3.33;;;1.50;;
7173;SDS011;3628;48.654;8.932;2023-05-07T05:16:04;4.17;;;1.70;;
7173;SDS011;3628;48.654;8.932;2023-05-07T05:18:30;1.37;;;1.20;;
7173;SDS011;3628;48.654;8.932;2023-05-07T05:20:56;2.07;;;1.47;;
7173;SDS011;3628;48.654;8.932;2023-05-07T05:23:21;3.17;;;1.30;;
7173;SDS011;3628;48.654;8.932;2023-05-07T05:25:47;1.67;;;1.40;;
7173;SDS011;3628;48.654;8.932;2023-05-07T05:28:13;2.47;;;1.43;;
7173;SDS011;3628;48.654;8.932;2023-05-07T05:30:38;1.60;;;1.50;;
7173;SDS011;3628;48.654;8.932;2023-05-07T05:33:04;2.60;;;1.40;;
7173;SDS011;3628;48.654;8.932;2023-05-07T05:35:30;1.40;;;1.30;;
7173;SDS011;3628;48.654;8.932;2023-05-07T05:37:55;2.60;;;1.30;;
7173;SDS011;3628;48.654;8.932;2023-05-07T05:40:21;2.30;;;1.30;;
7173;SDS011;3628;48.654;8.932;2023-05-07T05:42:46;1.47;;;1.37;;
7173;SDS011;3628;48.654;8.932;2023-05-07T05:45:12;1.73;;;1.30;;
7173;SDS011;3628;48.654;8.932;2023-05-07T05:47:38;1.40;;;1.30;;
7173;SDS011;3628;48.654;8.932;2023-05-07T05:50:04;1.33;;;1.23;;
7173;SDS011;3628;48.654;8.932;2023-05-07T05:52:31;1.57;;;1.47;;
7173;SDS011;3628;48.654;8.932;2023-05-07T05:54:56;1.67;;;1.47;;
7173;SDS011;3628;48.654;8.932;2023-05-07T05:57:22;2.40;;;1.70;;
7173;SDS011;3628;48.654;8.932;2023-05-07T05:59:48;2.13;;;1.20;;
7173;SDS011;3628;48.654;8.932;2023-05-07T06:02:13;1.43;;;1.30;;
7173;SDS011;3628;48.654;8.932;2023-05-07T06:04:39;1.50;;;1.40;;
7173;SDS011;3628;48.654;8.932;2023-05-07T06:07:05;2.13;;;1.40;;
7173;SDS011;3628;48.654;8.932;2023-05-07T06:09:30;2.17;;;1.47;;
7173;SDS011;3628;48.654;8.932;2023-05-07T06:11:56;3.50;;;1.60;;
7173;SDS011;3628;48.654;8.932;2023-05-07T06:14:21;2.47;;;1.73;;
7173;SDS011;3628;48.654;8.932;2023-05-07T06:16:47;2.70;;;1.60;;
7173;SDS011;3628;48.654;8.932;2023-05-07T06:19:13;4.78;;;1.95;;
7173;SDS011;3628;48.654;8.932;2023-05-07T06:21:39;1.80;;;1.70;;
7173;SDS011;3628;48.654;8.932;2023-05-07T06:24:05;2.10;;;1.67;;
7173;SDS011;3628;48.654;8.932;2023-05-07T06:26:31;4.23;;;1.70;;
7173;SDS011;3628;48.654;8.932;2023-05-07T06:28:56;3.23;;;1.50;;
7173;SDS011;3628;48.654;8.932;2023-05-07T06:31:22;1.65;;;1.55;;
7173;SDS011;3628;48.654;8.932;2023-05-07T06:33:48;2.30;;;1.60;;
7173;SDS011;3628;48.654;8.932;2023-05-07T06:36:13;3.13;;;1.63;;
7173;SDS011;3628;48.654;8.932;2023-05-07T06:38:39;2.85;;;1.60;;
7173;SDS011;3628;48.654;8.932;2023-05-07T06:41:08;2.10;;;1.65;;
7173;SDS011;3628;48.654;8.932;2023-05-07T06:43:33;1.60;;;1.50;;
7173;SDS011;3628;48.654;8.932;2023-05-07T06:45:59;2.08;;;1.60;;
7173;SDS011;3628;48.654;8.932;2023-05-07T06:48:24;1.67;;;1.48;;
7173;SDS011;3628;48.654;8.932;2023-05-07T06:50:50;2.25;;;1.67;;
7173;SDS011;3628;48.654;8.932;2023-05-07T06:53:15;3.40;;;1.58;;
7173;SDS011;3628;48.654;8.932;2023-05-07T06:55:41;1.50;;;1.35;;
7173;SDS011;3628;48.654;8.932;2023-05-07T06:58:07;2.00;;;1.45;;
7173;SDS011;3628;48.654;8.932;2023-05-07T07:00:32;2.35;;;1.30;;
7173;SDS011;3628;48.654;8.932;2023-05-07T07:02:58;2.30;;;1.60;;
7173;SDS011;3628;48.654;8.932;2023-05-07T07:05:25;1.38;;;1.27;;
7173;SDS011;3628;48.654;8.932;2023-05-07T07:07:51;1.38;;;1.30;;
7173;SDS011;3628;48.654;8.932;2023-05-07T07:10:19;1.85;;;1.40;;
7173;SDS011;3628;48.654;8.932;2023-05-07T07:12:45;2.30;;;1.45;;
7173;SDS011;3628;48.654;8.932;2023-05-07T07:15:11;3.28;;;1.70;;
7173;SDS011;3628;48.654;8.932;2023-05-07T07:17:36;2.25;;;1.40;;
7173;SDS011;3628;48.654;8.932;2023-05-07T07:20:02;2.47;;;1.70;;
7173;SDS011;3628;48.654;8.932;2023-05-07T07:22:28;1.88;;;1.52;;
7173;SDS011;3628;48.654;8.932;2023-05-07T07:24:54;1.52;;;1.40;;
7173;SDS011;3628;48.654;8.932;2023-05-07T07:27:19;3.45;;;1.73;;
7173;SDS011;3628;48.654;8.932;2023-05-07T07:29:45;2.92;;;1.50;;
7173;SDS011;3628;48.654;8.932;2023-05-07T07:32:11;1.67;;;1.52;;
7173;SDS011;3628;48.654;8.932;2023-05-07T07:34:36;1.48;;;1.38;;
7173;SDS011;3628;48.654;8.932;2023-05-07T07:37:02;1.73;;;1.48;;
7173;SDS011;3628;48.654;8.932;2023-05-07T07:39:30;1.65;;;1.40;;
7173;SDS011;3628;48.654;8.932;2023-05-07T07:41:59;2.10;;;1.30;;
7173;SDS011;3628;48.654;8.932;2023-05-07T07:44:25;2.53;;;1.58;;
7173;SDS011;3628;48.654;8.932;2023-05-07T07:46:51;1.40;;;1.30;;
7173;SDS011;3628;48.654;8.932;2023-05-07T07:49:17;1.70;;;1.30;;
7173;SDS011;3628;48.654;8.932;2023-05-07T07:51:42;1.67;;;1.50;;
7173;SDS011;3628;48.654;8.932;2023-05-07T07:54:08;1.67;;;1.50;;
7173;SDS011;3628;48.654;8.932;2023-05-07T07:56:34;1.67;;;1.23;;
7173;SDS011;3628;48.654;8.932;2023-05-07T07:59:00;2.05;;;1.60;;
7173;SDS011;3628;48.654;8.932;2023-05-07T08:01:26;2.10;;;1.45;;
7173;SDS011;3628;48.654;8.932;2023-05-07T08:03:51;3.67;;;1.55;;
7173;SDS011;3628;48.654;8.932;2023-05-07T08:06:17;1.52;;;1.27;;
7173;SDS011;3628;48.654;8.932;2023-05-07T08:08:43;1.83;;;1.10;;
7173;SDS011;3628;48.654;8.932;2023-05-07T08:11:08;3.22;;;1.00;;
7173;SDS011;3628;48.654;8.932;2023-05-07T08:13:35;1.30;;;1.10;;
7173;SDS011;3628;48.654;8.932;2023-05-07T08:16:01;1.60;;;1.48;;
7173;SDS011;3628;48.654;8.932;2023-05-07T08:18:27;1.73;;;1.10;;
7173;SDS011;3628;48.654;8.932;2023-05-07T08:20:53;1.27;;;1.10;;
7173;SDS011;3628;48.654;8.932;2023-05-07T08:23:19;2.25;;;1.30;;
7173;SDS011;3628;48.654;8.932;2023-05-07T08:25:45;1.10;;;1.00;;
7173;SDS011;3628;48.654;8.932;2023-05-07T08:28:11;1.77;;;1.20;;
7173;SDS011;3628;48.654;8.932;2023-05-07T08:30:36;0.88;;;0.88;;
7173;SDS011;3628;48.654;8.932;2023-05-07T08:33:02;1.63;;;1.13;;
7173;SDS011;3628;48.654;8.932;2023-05-07T08:35:27;1.35;;;1.00;;
7173;SDS011;3628;48.654;8.932;2023-05-07T08:37:53;1.73;;;1.10;;
7173;SDS011;3628;48.654;8.932;2023-05-07T08:40:19;1.23;;;1.15;;
7173;SDS011;3628;48.654;8.932;2023-05-07T08:42:48;2.42;;;1.40;;
7173;SDS011;3628;48.654;8.932;2023-05-07T08:45:16;1.88;;;0.93;;
7173;SDS011;3628;48.654;8.932;2023-05-07T08:47:46;1.40;;;1.10;;
7173;SDS011;3628;48.654;8.932;2023-05-07T08:50:14;1.85;;;1.20;;
7173;SDS011;3628;48.654;8.932;2023-05-07T08:52:41;0.90;;;0.90;;
7173;SDS011;3628;48.654;8.932;2023-05-07T08:55:07;1.30;;;0.98;;
7173;SDS011;3628;48.654;8.932;2023-05-07T08:57:33;1.52;;;1.20;;
7173;SDS011;3628;48.654;8.932;2023-05-07T08:59:59;0.90;;;0.90;;
7173;SDS011;3628;48.654;8.932;2023-05-07T09:02:25;1.70;;;1.00;;
7173;SDS011;3628;48.654;8.932;2023-05-07T09:04:51;1.65;;;1.02;;
7173;SDS011;3628;48.654;8.932;2023-05-07T09:07:19;1.67;;;1.05;;
7173;SDS011;3628;48.654;8.932;2023-05-07T09:09:45;2.75;;;1.20;;
7173;SDS011;3628;48.654;8.932;2023-05-07T09:12:11;0.90;;;0.90;;
7173;SDS011;3628;48.654;8.932;2023-05-07T09:14:37;0.90;;;0.90;;
7173;SDS011;3628;48.654;8.932;2023-05-07T09:17:03;1.05;;;0.93;;
7173;SDS011;3628;48.654;8.932;2023-05-07T09:19:28;0.77;;;0.77;;
7173;SDS011;3628;48.654;8.932;2023-05-07T09:21:58;0.75;;;0.75;;
7173;SDS011;3628;48.654;8.932;2023-05-07T09:24:28;2.83;;;1.30;;
7173;SDS011;3628;48.654;8.932;2023-05-07T09:26:57;1.30;;;1.00;;
7173;SDS011;3628;48.654;8.932;2023-05-07T09:29:23;1.85;;;0.88;;
7173;SDS011;3628;48.654;8.932;2023-05-07T09:31:48;2.17;;;0.98;;
7173;SDS011;3628;48.654;8.932;2023-05-07T09:34:14;1.20;;;1.10;;
7173;SDS011;3628;48.654;8.932;2023-05-07T09:36:39;1.35;;;0.90;;
7173;SDS011;3628;48.654;8.932;2023-05-07T09:39:05;1.27;;;0.90;;
7173;SDS011;3628;48.654;8.932;2023-05-07T09:41:30;1.02;;;0.93;;
7173;SDS011;3628;48.654;8.932;2023-05-07T09:43:57;1.10;;;1.00;;
7173;SDS011;3628;48.654;8.932;2023-05-07T09:46:30;1.23;;;1.13;;
7173;SDS011;3628;48.654;8.932;2023-05-07T09:48:57;0.95;;;0.90;;
7173;SDS011;3628;48.654;8.932;2023-05-07T09:51:25;2.90;;;1.00;;
7173;SDS011;3628;48.654;8.932;2023-05-07T09:53:54;2.72;;;0.95;;
7173;SDS011;3628;48.654;8.932;2023-05-07T09:56:22;1.00;;;1.00;;
7173;SDS011;3628;48.654;8.932;2023-05-07T09:58:49;3.00;;;1.00;;
7173;SDS011;3628;48.654;8.932;2023-05-07T10:01:16;1.75;;;1.00;;
7173;SDS011;3628;48.654;8.932;2023-05-07T10:03:44;2.88;;;1.00;;
7173;SDS011;3628;48.654;8.932;2023-05-07T10:06:10;1.42;;;1.10;;
7173;SDS011;3628;48.654;8.932;2023-05-07T10:08:38;1.20;;;0.90;;
7173;SDS011;3628;48.654;8.932;2023-05-07T10:11:04;1.33;;;1.17;;
7173;SDS011;3628;48.654;8.932;2023-05-07T10:13:33;2.85;;;1.40;;
7173;SDS011;3628;48.654;8.932;2023-05-07T10:16:03;1.60;;;1.30;;
7173;SDS011;3628;48.654;8.932;2023-05-07T10:18:30;1.08;;;1.08;;
7173;SDS011;3628;48.654;8.932;2023-05-07T10:21:07;1.40;;;1.10;;
7173;SDS011;3628;48.654;8.932;2023-05-07T10:23:45;1.10;;;0.80;;
7173;SDS011;3628;48.654;8.932;2023-05-07T10:26:13;2.00;;;1.13;;
7173;SDS011;3628;48.654;8.932;2023-05-07T10:28:41;1.48;;;1.10;;
7173;SDS011;3628;48.654;8.932;2023-05-07T10:33:54;1.15;;;1.00;;
7173;SDS011;3628;48.654;8.932;2023-05-07T10:36:21;0.88;;;0.82;;
7173;SDS011;3628;48.654;8.932;2023-05-07T10:38:48;2.05;;;1.17;;
7173;SDS011;3628;48.654;8.932;2023-05-07T10:41:14;1.58;;;1.08;;
7173;SDS011;3628;48.654;8.932;2023-05-07T10:43:42;1.38;;;1.23;;
7173;SDS011;3628;48.654;8.932;2023-05-07T10:46:09;1.45;;;1.13;;
7173;SDS011;3628;48.654;8.932;2023-05-07T10:51:36;2.65;;;1.10;;
7173;SDS011;3628;48.654;8.932;2023-05-07T10:56:37;1.73;;;1.17;;
7173;SDS011;3628;48.654;8.932;2023-05-07T11:02:04;1.50;;;1.00;;
7173;SDS011;3628;48.654;8.932;2023-05-07T11:04:31;1.65;;;1.08;;
7173;SDS011;3628;48.654;8.932;2023-05-07T11:15:09;1.77;;;1.08;;
7173;SDS011;3628;48.654;8.932;2023-05-07T11:20:43;1.10;;;1.00;;
7173;SDS011;3628;48.654;8.932;2023-05-07T11:23:57;2.53;;;1.00;;
7173;SDS011;3628;48.654;8.932;2023-05-07T11:26:06;1.20;;;0.93;;
7173;SDS011;3628;48.654;8.932;2023-05-07T11:28:41;1.45;;;1.00;;
7173;SDS011;3628;48.654;8.932;2023-05-07T11:31:09;1.90;;;0.90;;
7173;SDS011;3628;48.654;8.932;2023-05-07T11:33:35;1.65;;;1.00;;
7173;SDS011;3628;48.654;8.932;2023-05-07T11:36:02;1.17;;;1.00;;
7173;SDS011;3628;48.654;8.932;2023-05-07T11:38:29;1.92;;;1.00;;
7173;SDS011;3628;48.654;8.932;2023-05-07T11:40:59;2.33;;;1.00;;
7173;SDS011;3628;48.654;8.932;2023-05-07T11:43:25;1.08;;;1.00;;
7173;SDS011;3628;48.654;8.932;2023-05-07T11:45:51;2.10;;;0.98;;
7173;SDS011;3628;48.654;8.932;2023-05-07T11:48:17;1.65;;;0.90;;
7173;SDS011;3628;48.654;8.932;2023-05-07T11:50:49;1.25;;;0.90;;
7173;SDS011;3628;48.654;8.932;2023-05-07T11:53:26;2.58;;;1.17;;
7173;SDS011;3628;48.654;8.932;2023-05-07T11:55:52;1.58;;;1.23;;
7173;SDS011;3628;48.654;8.932;2023-05-07T11:58:22;4.35;;;1.20;;
7173;SDS011;3628;48.654;8.932;2023-05-07T12:00:49;1.70;;;1.00;;
7173;SDS011;3628;48.654;8.932;2023-05-07T12:03:15;2.55;;;1.20;;
7173;SDS011;3628;48.654;8.932;2023-05-07T12:05:41;2.08;;;1.30;;
7173;SDS011;3628;48.654;8.932;2023-05-07T12:08:07;2.05;;;1.08;;
7173;SDS011;3628;48.654;8.932;2023-05-07T12:10:33;2.92;;;1.40;;
7173;SDS011;3628;48.654;8.932;2023-05-07T12:12:58;2.38;;;1.90;;
7173;SDS011;3628;48.654;8.932;2023-05-07T12:15:24;1.10;;;1.00;;
7173;SDS011;3628;48.654;8.932;2023-05-07T12:17:49;2.60;;;1.45;;
7173;SDS011;3628;48.654;8.932;2023-05-07T12:20:17;2.08;;;0.95;;
7173;SDS011;3628;48.654;8.932;2023-05-07T12:22:43;2.35;;;1.40;;
7173;SDS011;3628;48.654;8.932;2023-05-07T12:25:09;4.88;;;2.40;;
7173;SDS011;3628;48.654;8.932;2023-05-07T12:27:36;3.58;;;1.40;;
7173;SDS011;3628;48.654;8.932;2023-05-07T12:30:04;2.83;;;1.02;;
7173;SDS011;3628;48.654;8.932;2023-05-07T12:32:29;0.98;;;0.90;;
7173;SDS011;3628;48.654;8.932;2023-05-07T12:34:55;1.30;;;0.93;;
7173;SDS011;3628;48.654;8.932;2023-05-07T12:37:24;1.95;;;1.00;;
7173;SDS011;3628;48.654;8.932;2023-05-07T12:40:04;4.15;;;1.08;;
7173;SDS011;3628;48.654;8.932;2023-05-07T12:42:32;1.15;;;1.00;;
7173;SDS011;3628;48.654;8.932;2023-05-07T12:45:07;2.05;;;1.00;;
7173;SDS011;3628;48.654;8.932;2023-05-07T12:47:36;1.58;;;0.85;;
7173;SDS011;3628;48.654;8.932;2023-05-07T12:50:04;1.33;;;0.90;;
7173;SDS011;3628;48.654;8.932;2023-05-07T12:52:31;2.08;;;0.90;;
7173;SDS011;3628;48.654;8.932;2023-05-07T12:54:56;2.42;;;0.90;;
7173;SDS011;3628;48.654;8.932;2023-05-07T12:57:29;1.05;;;0.90;;
7173;SDS011;3628;48.654;8.932;2023-05-07T12:59:57;1.90;;;0.90;;
7173;SDS011;3628;48.654;8.932;2023-05-07T13:02:31;2.60;;;0.93;;
7173;SDS011;3628;48.654;8.932;2023-05-07T13:05:03;1.30;;;0.85;;
7173;SDS011;3628;48.654;8.932;2023-05-07T13:07:29;1.67;;;0.98;;
7173;SDS011;3628;48.654;8.932;2023-05-07T13:09:54;2.28;;;0.95;;
7173;SDS011;3628;48.654;8.932;2023-05-07T13:12:20;1.52;;;1.20;;
7173;SDS011;3628;48.654;8.932;2023-05-07T13:14:45;3.45;;;1.00;;
7173;SDS011;3628;48.654;8.932;2023-05-07T13:17:11;1.88;;;1.08;;
7173;SDS011;3628;48.654;8.932;2023-05-07T13:19:36;3.28;;;1.05;;
7173;SDS011;3628;48.654;8.932;2023-05-07T13:22:02;1.65;;;1.20;;
7173;SDS011;3628;48.654;8.932;2023-05-07T13:24:28;2.65;;;1.30;;
7173;SDS011;3628;48.654;8.932;2023-05-07T13:26:54;4.65;;;1.35;;
7173;SDS011;3628;48.654;8.932;2023-05-07T13:29:19;4.70;;;1.50;;
7173;SDS011;3628;48.654;8.932;2023-05-07T13:31:50;3.45;;;1.80;;
7173;SDS011;3628;48.654;8.932;2023-05-07T13:34:15;2.20;;;1.33;;
7173;SDS011;3628;48.654;8.932;2023-05-07T13:36:41;2.47;;;1.57;;
7173;SDS011;3628;48.654;8.932;2023-05-07T13:39:06;3.42;;;1.50;;
7173;SDS011;3628;48.654;8.932;2023-05-07T13:41:32;3.93;;;1.50;;
7173;SDS011;3628;48.654;8.932;2023-05-07T13:43:58;3.23;;;1.57;;
7173;SDS011;3628;48.654;8.932;2023-05-07T13:46:23;3.20;;;1.33;;
7173;SDS011;3628;48.654;8.932;2023-05-07T13:48:49;3.20;;;1.40;;
7173;SDS011;3628;48.654;8.932;2023-05-07T13:51:16;2.37;;;1.70;;
7173;SDS011;3628;48.654;8.932;2023-05-07T13:53:41;3.50;;;1.60;;
7173;SDS011;3628;48.654;8.932;2023-05-07T13:56:07;3.33;;;1.37;;
7173;SDS011;3628;48.654;8.932;2023-05-07T13:58:33;3.60;;;2.23;;
7173;SDS011;3628;48.654;8.932;2023-05-07T14:00:58;5.27;;;2.53;;
7173;SDS011;3628;48.654;8.932;2023-05-07T14:03:24;6.33;;;2.83;;
7173;SDS011;3628;48.654;8.932;2023-05-07T14:05:50;2.83;;;1.90;;
7173;SDS011;3628;48.654;8.932;2023-05-07T14:08:15;2.63;;;1.40;;
7173;SDS011;3628;48.654;8.932;2023-05-07T14:10:43;3.40;;;1.43;;
7173;SDS011;3628;48.654;8.932;2023-05-07T14:13:09;2.63;;;1.80;;
7173;SDS011;3628;48.654;8.932;2023-05-07T14:15:35;2.37;;;1.30;;
7173;SDS011;3628;48.654;8.932;2023-05-07T14:18:01;4.70;;;1.40;;
7173;SDS011;3628;48.654;8.932;2023-05-07T14:20:27;7.40;;;1.60;;
7173;SDS011;3628;48.654;8.932;2023-05-07T14:22:52;1.93;;;1.30;;
7173;SDS011;3628;48.654;8.932;2023-05-07T14:25:18;1.13;;;1.03;;
7173;SDS011;3628;48.654;8.932;2023-05-07T14:27:43;2.23;;;1.27;;
7173;SDS011;3628;48.654;8.932;2023-05-07T14:30:09;2.80;;;1.23;;
7173;SDS011;3628;48.654;8.932;2023-05-07T14:32:35;2.88;;;1.23;;
7173;SDS011;3628;48.654;8.932;2023-05-07T14:35:01;4.03;;;1.30;;
7173;SDS011;3628;48.654;8.932;2023-05-07T14:37:26;5.93;;;1.48;;
7173;SDS011;3628;48.654;8.932;2023-05-07T14:39:53;1.77;;;1.17;;
7173;SDS011;3628;48.654;8.932;2023-05-07T14:42:18;2.60;;;1.20;;
7173;SDS011;3628;48.654;8.932;2023-05-07T14:44:44;3.10;;;1.20;;
7173;SDS011;3628;48.654;8.932;2023-05-07T14:47:10;4.30;;;1.10;;
7173;SDS011;3628;48.654;8.932;2023-05-07T14:49:36;1.77;;;1.30;;
7173;SDS011;3628;48.654;8.932;2023-05-07T14:52:01;1.33;;;1.10;;
7173;SDS011;3628;48.654;8.932;2023-05-07T14:54:27;1.47;;;1.20;;
7173;SDS011;3628;48.654;8.932;2023-05-07T14:56:53;1.43;;;1.30;;
7173;SDS011;3628;48.654;8.932;2023-05-07T14:59:19;3.60;;;1.27;;
7173;SDS011;3628;48.654;8.932;2023-05-07T15:01:46;3.25;;;1.30;;
7173;SDS011;3628;48.654;8.932;2023-05-07T15:04:12;1.40;;;1.13;;
7173;SDS011;3628;48.654;8.932;2023-05-07T15:06:38;2.53;;;1.15;;
7173;SDS011;3628;48.654;8.932;2023-05-07T15:09:04;2.50;;;1.02;;
7173;SDS011;3628;48.654;8.932;2023-05-07T15:11:30;2.85;;;1.00;;
7173;SDS011;3628;48.654;8.932;2023-05-07T15:13:55;1.95;;;1.30;;
7173;SDS011;3628;48.654;8.932;2023-05-07T15:16:21;2.45;;;1.10;;
7173;SDS011;3628;48.654;8.932;2023-05-07T15:18:47;2.00;;;1.17;;
7173;SDS011;3628;48.654;8.932;2023-05-07T15:21:13;5.97;;;1.17;;
7173;SDS011;3628;48.654;8.932;2023-05-07T15:23:39;1.17;;;0.70;;
7173;SDS011;3628;48.654;8.932;2023-05-07T15:26:06;0.77;;;0.77;;
7173;SDS011;3628;48.654;8.932;2023-05-07T15:28:32;2.00;;;1.10;;
7173;SDS011;3628;48.654;8.932;2023-05-07T15:30:58;2.67;;;1.30;;
7173;SDS011;3628;48.654;8.932;2023-05-07T15:33:23;4.05;;;1.52;;